Time;durP1;ratioP1;P1;durP2;ratioP2;P2;SDS_P1;SDS_P2;PMS_P1;PMS_P2;Temp;Humidity;BMP_temperature;BMP_pressure;BME280_temperature;BME280_humidity;BME280_pressure;Samples;Min_cycle;Max_cycle;Signal;HPM_P1;HPM_P2
2022/07/18 00:00:28;;;;;;;6.35;4.35;;;13.80;99.90;;;;;;5053559;28;20389;-70
2022/07/18 00:02:53;;;;;;;7.00;4.82;;;13.90;99.90;;;;;;5054139;28;20136;-70
2022/07/18 00:05:19;;;;;;;7.93;5.15;;;13.90;99.90;;;;;;5053458;28;20032;-70
2022/07/18 00:07:45;;;;;;;9.77;4.60;;;14.00;99.90;;;;;;5053345;28;20027;-71
2022/07/18 00:10:10;;;;;;;8.60;4.65;;;14.10;99.90;;;;;;5053367;28;20474;-70
2022/07/18 00:12:36;;;;;;;8.00;4.85;;;14.10;99.90;;;;;;5035454;28;20017;-71
2022/07/18 00:15:03;;;;;;;8.13;4.78;;;14.10;99.90;;;;;;5053502;28;20025;-70
2022/07/18 00:17:29;;;;;;;10.60;4.38;;;14.10;99.90;;;;;;5053192;28;20021;-70
2022/07/18 00:19:55;;;;;;;8.85;4.43;;;14.20;99.90;;;;;;5053811;28;20032;-70
2022/07/18 00:22:20;;;;;;;12.27;4.88;;;14.20;99.90;;;;;;5057590;28;20040;-70
2022/07/18 00:24:46;;;;;;;7.35;5.13;;;14.30;99.90;;;;;;5057086;28;20025;-70
2022/07/18 00:27:11;;;;;;;8.55;4.78;;;14.30;99.90;;;;;;5057726;28;20090;-70
2022/07/18 00:29:37;;;;;;;15.05;5.22;;;14.30;99.90;;;;;;5057106;28;20021;-70
2022/07/18 00:32:07;;;;;;;7.10;4.25;;;14.40;99.90;;;;;;5057354;28;20032;-70
2022/07/18 00:34:34;;;;;;;8.95;3.78;;;14.40;99.90;;;;;;5057184;28;20045;-70
2022/07/18 00:37:00;;;;;;;9.95;4.70;;;14.40;99.90;;;;;;5057090;28;20431;-70
2022/07/18 00:39:25;;;;;;;16.25;6.03;;;14.40;99.90;;;;;;5056991;28;20056;-70
2022/07/18 00:41:51;;;;;;;10.85;5.28;;;14.40;99.90;;;;;;5057116;28;20071;-70
2022/07/18 00:44:22;;;;;;;7.88;4.35;;;14.40;99.90;;;;;;5057737;28;20063;-70
2022/07/18 00:46:53;;;;;;;7.90;4.70;;;14.40;99.90;;;;;;5056750;28;20423;-70
2022/07/18 00:49:19;;;;;;;13.23;5.43;;;14.40;99.90;;;;;;5056629;28;20044;-70
2022/07/18 00:51:45;;;;;;;10.13;4.32;;;14.40;99.90;;;;;;5056740;28;20071;-70
2022/07/18 00:54:12;;;;;;;12.18;4.53;;;14.40;99.90;;;;;;5056778;28;20029;-70
2022/07/18 00:56:38;;;;;;;6.25;4.35;;;14.40;99.90;;;;;;5057305;28;20059;-71
2022/07/18 00:59:04;;;;;;;15.63;5.20;;;14.40;99.90;;;;;;5057975;28;20029;-70
2022/07/18 01:01:48;;;;;;;4.07;3.47;;;14.40;99.90;;;;;;5058163;28;20063;-71
2022/07/18 01:04:19;;;;;;;9.75;4.10;;;14.40;99.90;;;;;;5057098;28;20427;-70
2022/07/18 01:06:46;;;;;;;5.75;3.78;;;14.30;99.90;;;;;;5056642;28;20040;-71
2022/07/18 01:09:13;;;;;;;6.20;4.60;;;14.40;99.90;;;;;;5077546;22;20019;-70
2022/07/18 01:11:39;;;;;;;5.40;4.03;;;14.30;99.90;;;;;;5036176;28;20055;-70
2022/07/18 01:14:05;;;;;;;5.25;4.15;;;14.30;99.90;;;;;;5036439;28;20029;-70
2022/07/18 01:16:32;;;;;;;8.05;4.60;;;14.40;99.90;;;;;;5035899;28;20104;-70
2022/07/18 01:18:58;;;;;;;5.55;4.68;;;14.30;99.90;;;;;;5036025;28;20112;-70
2022/07/18 01:21:24;;;;;;;10.45;5.38;;;14.40;99.90;;;;;;5036306;28;20056;-70
2022/07/18 01:23:50;;;;;;;11.30;6.35;;;14.40;99.90;;;;;;5035848;28;20084;-70
2022/07/18 01:26:16;;;;;;;13.07;6.82;;;14.40;99.90;;;;;;5035817;28;20034;-70
2022/07/18 01:28:42;;;;;;;10.40;5.25;;;14.40;99.90;;;;;;5035902;28;20099;-70
2022/07/18 01:31:08;;;;;;;10.43;5.68;;;14.50;99.90;;;;;;5035197;28;20389;-70
2022/07/18 01:33:34;;;;;;;15.27;6.38;;;14.50;99.90;;;;;;5035371;28;20021;-70
2022/07/18 01:36:01;;;;;;;14.65;5.65;;;14.50;99.90;;;;;;5035742;28;20022;-70
2022/07/18 01:38:28;;;;;;;8.93;5.80;;;14.60;99.90;;;;;;5035898;28;20029;-70
2022/07/18 01:40:55;;;;;;;15.48;6.22;;;14.60;99.90;;;;;;5035592;28;20026;-70
2022/07/18 01:43:21;;;;;;;14.57;6.35;;;14.70;99.90;;;;;;5035581;28;20018;-70
2022/07/18 01:45:47;;;;;;;10.05;6.35;;;14.60;99.90;;;;;;5035443;28;20034;-70
2022/07/18 01:48:13;;;;;;;13.00;6.45;;;14.60;99.90;;;;;;5035480;28;20496;-70
2022/07/18 01:50:38;;;;;;;11.68;5.88;;;14.70;99.90;;;;;;5035367;28;20033;-70
2022/07/18 01:53:04;;;;;;;9.10;5.68;;;14.70;99.90;;;;;;5036000;28;20358;-70
2022/07/18 01:55:29;;;;;;;8.57;5.72;;;14.60;99.90;;;;;;5035480;28;20033;-70
2022/07/18 01:57:55;;;;;;;15.25;6.88;;;14.60;99.90;;;;;;5035308;28;20065;-70
2022/07/18 02:00:20;;;;;;;11.00;5.65;;;14.60;99.90;;;;;;5035238;28;20026;-70
2022/07/18 02:02:46;;;;;;;10.80;4.82;;;14.60;99.90;;;;;;5035159;28;20381;-70
2022/07/18 02:05:12;;;;;;;8.77;4.65;;;14.60;99.90;;;;;;5035335;28;20105;-70
2022/07/18 02:07:40;;;;;;;8.23;5.10;;;14.60;99.90;;;;;;5035222;28;20444;-70
2022/07/18 02:10:08;;;;;;;10.40;4.75;;;14.60;99.90;;;;;;5034834;28;20038;-70
2022/07/18 02:12:34;;;;;;;11.45;5.55;;;14.50;99.90;;;;;;5035811;28;20060;-70
2022/07/18 02:15:00;;;;;;;8.57;5.20;;;14.60;99.90;;;;;;5034970;28;20371;-70
2022/07/18 02:17:26;;;;;;;7.57;4.53;;;14.60;99.90;;;;;;5034796;28;20032;-70
2022/07/18 02:19:51;;;;;;;9.82;5.40;;;14.60;99.90;;;;;;5034858;28;20029;-70
2022/07/18 02:22:17;;;;;;;15.20;6.43;;;14.60;99.90;;;;;;5034854;28;20397;-70
2022/07/18 02:24:43;;;;;;;11.23;5.72;;;14.60;99.90;;;;;;5034877;28;20030;-70
2022/07/18 02:27:08;;;;;;;9.30;5.72;;;14.60;99.90;;;;;;5034743;28;20474;-70
2022/07/18 02:29:34;;;;;;;10.18;5.25;;;14.60;99.90;;;;;;5034694;28;20474;-70
2022/07/18 02:31:59;;;;;;;17.50;6.97;;;14.60;99.90;;;;;;5034654;28;20021;-70
2022/07/18 02:34:25;;;;;;;15.55;6.35;;;14.60;99.90;;;;;;5034788;28;20037;-70
2022/07/18 02:36:51;;;;;;;16.38;6.55;;;14.60;99.90;;;;;;5035164;28;20040;-70
2022/07/18 02:39:17;;;;;;;16.63;6.10;;;14.60;99.90;;;;;;5034481;28;20033;-70
2022/07/18 02:41:43;;;;;;;10.95;5.88;;;14.60;99.90;;;;;;5034454;28;20034;-70
2022/07/18 02:44:09;;;;;;;17.95;8.25;;;14.60;99.90;;;;;;5034242;28;20026;-70
2022/07/18 02:46:35;;;;;;;16.25;7.07;;;14.60;99.90;;;;;;5034279;28;20057;-70
2022/07/18 02:49:01;;;;;;;10.85;8.13;;;14.70;99.90;;;;;;5034587;28;20440;-70
2022/07/18 02:51:26;;;;;;;13.20;8.35;;;14.70;99.90;;;;;;5034517;28;20033;-70
2022/07/18 02:53:52;;;;;;;17.00;8.85;;;14.70;99.90;;;;;;5034302;28;20024;-70
2022/07/18 02:56:18;;;;;;;13.98;7.88;;;14.60;99.90;;;;;;5034446;28;20033;-70
2022/07/18 02:58:43;;;;;;;15.90;10.13;;;14.60;99.90;;;;;;5034170;28;20036;-70
2022/07/18 03:01:09;;;;;;;12.82;8.23;;;14.60;99.90;;;;;;5033924;28;20029;-68
2022/07/18 03:03:34;;;;;;;16.98;9.18;;;14.70;99.90;;;;;;5034040;28;20033;-68
2022/07/18 03:06:00;;;;;;;11.52;7.90;;;14.60;99.90;;;;;;5034153;28;20021;-68
2022/07/18 03:08:25;;;;;;;17.55;11.15;;;14.60;99.90;;;;;;5034055;28;20104;-68
2022/07/18 03:10:51;;;;;;;18.83;10.48;;;14.60;99.90;;;;;;5033740;28;20080;-68
2022/07/18 03:13:17;;;;;;;14.80;8.38;;;14.60;99.90;;;;;;5034108;28;20025;-68
2022/07/18 03:15:42;;;;;;;21.75;10.63;;;14.60;99.90;;;;;;5033802;28;20025;-68
2022/07/18 03:18:08;;;;;;;20.38;9.02;;;14.60;99.90;;;;;;5033750;28;20032;-68
2022/07/18 03:20:33;;;;;;;21.80;10.52;;;14.60;99.90;;;;;;5033719;28;20112;-68
2022/07/18 03:22:59;;;;;;;17.40;10.25;;;14.60;99.90;;;;;;5015985;28;20025;-68
2022/07/18 03:25:25;;;;;;;24.80;10.88;;;14.60;99.90;;;;;;5033673;28;20033;-68
2022/07/18 03:27:50;;;;;;;17.02;10.25;;;14.60;99.90;;;;;;5033520;28;20037;-68
2022/07/18 03:30:16;;;;;;;19.67;10.02;;;14.60;99.90;;;;;;5033554;28;20030;-68
2022/07/18 03:32:42;;;;;;;17.00;10.80;;;14.60;99.90;;;;;;5033526;28;20092;-68
2022/07/18 03:35:08;;;;;;;22.55;9.40;;;14.60;99.90;;;;;;5033519;28;20531;-68
2022/07/18 03:37:33;;;;;;;16.23;8.52;;;14.60;99.90;;;;;;5033476;28;20034;-68
2022/07/18 03:39:59;;;;;;;23.70;8.73;;;14.70;99.90;;;;;;5033960;28;20025;-68
2022/07/18 03:42:24;;;;;;;15.68;9.20;;;14.60;99.90;;;;;;5033458;28;20030;-68
2022/07/18 03:44:50;;;;;;;14.50;8.77;;;14.70;99.90;;;;;;5033359;28;20076;-68
2022/07/18 03:47:16;;;;;;;12.50;7.30;;;14.70;99.90;;;;;;5025384;28;20030;-68
2022/07/18 03:49:41;;;;;;;20.75;7.80;;;14.70;99.90;;;;;;5015556;28;20380;-68
2022/07/18 03:52:07;;;;;;;14.38;6.55;;;14.80;99.90;;;;;;5013579;28;20029;-68
2022/07/18 03:54:32;;;;;;;11.10;6.60;;;14.80;99.90;;;;;;5028930;28;20059;-68
2022/07/18 03:56:58;;;;;;;18.38;7.55;;;14.90;99.90;;;;;;5039918;28;20056;-68
2022/07/18 03:59:23;;;;;;;12.13;7.25;;;14.90;99.90;;;;;;5040072;28;20025;-68
2022/07/18 04:01:49;;;;;;;9.20;6.18;;;15.00;99.90;;;;;;5028277;28;20088;-68
2022/07/18 04:04:15;;;;;;;9.80;6.95;;;15.10;99.90;;;;;;5020029;28;20117;-68
2022/07/18 04:06:40;;;;;;;7.00;5.55;;;15.10;99.90;;;;;;5019946;28;20076;-68
2022/07/18 04:09:06;;;;;;;22.92;5.82;;;15.20;99.90;;;;;;5019995;28;20489;-68
2022/07/18 04:11:32;;;;;;;15.90;7.20;;;15.20;99.90;;;;;;5020157;28;20049;-68
2022/07/18 04:13:57;;;;;;;15.77;6.85;;;15.20;99.90;;;;;;5019971;28;20097;-68
2022/07/18 04:16:23;;;;;;;13.52;7.20;;;15.30;99.90;;;;;;5024233;28;20021;-68
2022/07/18 04:18:49;;;;;;;15.15;7.18;;;15.40;99.90;;;;;;5039592;28;20035;-68
2022/07/18 04:21:15;;;;;;;15.43;6.60;;;15.30;99.90;;;;;;5039564;28;20071;-68
2022/07/18 04:23:41;;;;;;;21.75;6.57;;;15.40;99.90;;;;;;5039903;28;20053;-68
2022/07/18 04:26:07;;;;;;;16.55;6.30;;;15.50;99.90;;;;;;5040068;28;20044;-68
2022/07/18 04:28:32;;;;;;;12.60;6.30;;;15.50;99.90;;;;;;5039599;28;20059;-68
2022/07/18 04:30:58;;;;;;;12.02;5.35;;;15.50;99.90;;;;;;5021778;28;20120;-68
2022/07/18 04:33:24;;;;;;;13.73;5.20;;;15.50;99.90;;;;;;5039572;28;20500;-68
2022/07/18 04:35:50;;;;;;;13.20;6.40;;;15.60;99.90;;;;;;5039572;28;20040;-68
2022/07/18 04:38:15;;;;;;;11.95;6.03;;;15.60;99.90;;;;;;5039549;28;20029;-68
2022/07/18 04:40:41;;;;;;;13.40;6.00;;;15.70;99.90;;;;;;5039432;28;20036;-68
2022/07/18 04:43:07;;;;;;;15.23;6.40;;;15.70;99.90;;;;;;5039761;28;20116;-68
2022/07/18 04:45:35;;;;;;;17.48;5.97;;;15.70;99.90;;;;;;5039714;28;20053;-68
2022/07/18 04:48:04;;;;;;;16.67;5.47;;;15.80;99.90;;;;;;5039461;28;20021;-68
2022/07/18 04:50:29;;;;;;;15.13;4.80;;;15.80;99.90;;;;;;5038983;28;20083;-68
2022/07/18 04:52:56;;;;;;;13.18;5.85;;;15.80;99.90;;;;;;5039582;28;20415;-68
2022/07/18 04:55:23;;;;;;;12.20;5.78;;;15.80;99.90;;;;;;5039423;28;20044;-68
2022/07/18 04:57:50;;;;;;;9.75;6.05;;;15.80;99.90;;;;;;5039283;28;20108;-68
2022/07/18 05:00:18;;;;;;;17.15;6.22;;;15.90;99.90;;;;;;5039210;28;20101;-68
2022/07/18 05:02:47;;;;;;;9.20;4.82;;;15.90;99.90;;;;;;5039296;28;20021;-68
2022/07/18 05:05:14;;;;;;;13.25;6.10;;;16.00;99.90;;;;;;5039292;28;20034;-68
2022/07/18 05:07:40;;;;;;;9.90;5.20;;;16.00;99.90;;;;;;5036377;28;20442;-68
2022/07/18 05:10:08;;;;;;;8.93;5.68;;;16.00;99.90;;;;;;5035950;28;20420;-68
2022/07/18 05:12:35;;;;;;;16.08;5.32;;;16.10;99.90;;;;;;5036380;28;20385;-68
2022/07/18 05:15:01;;;;;;;15.93;5.60;;;16.10;99.90;;;;;;5036605;28;20037;-68
2022/07/18 05:17:27;;;;;;;9.68;4.63;;;16.10;99.90;;;;;;5035923;28;20068;-68
2022/07/18 05:19:52;;;;;;;12.55;4.75;;;16.20;99.90;;;;;;5035883;28;20026;-68
2022/07/18 05:22:18;;;;;;;9.10;4.97;;;16.20;99.90;;;;;;5035914;28;20159;-68
2022/07/18 05:24:43;;;;;;;6.93;4.35;;;16.30;99.90;;;;;;5036130;28;20051;-68
2022/07/18 05:27:09;;;;;;;9.93;5.00;;;16.30;99.90;;;;;;5035747;28;20033;-68
2022/07/18 05:29:35;;;;;;;10.10;4.75;;;16.40;99.90;;;;;;5035795;28;20033;-68
2022/07/18 05:32:02;;;;;;;11.90;5.10;;;16.40;99.90;;;;;;5035760;28;20156;-68
2022/07/18 05:34:27;;;;;;;11.25;4.50;;;16.60;99.90;;;;;;5035642;28;20037;-68
2022/07/18 05:36:54;;;;;;;8.75;4.95;;;16.60;99.90;;;;;;5035633;28;20025;-68
2022/07/18 05:39:20;;;;;;;20.45;5.88;;;16.70;99.90;;;;;;5035618;28;20104;-68
2022/07/18 05:41:45;;;;;;;18.48;6.22;;;16.80;99.90;;;;;;5035850;28;20057;-68
2022/07/18 05:44:11;;;;;;;11.50;6.03;;;16.80;99.90;;;;;;5035949;28;20022;-68
2022/07/18 05:46:37;;;;;;;13.45;6.22;;;16.80;99.90;;;;;;5035669;28;20021;-68
2022/07/18 05:49:02;;;;;;;12.77;6.18;;;16.90;99.90;;;;;;5035362;28;20022;-68
2022/07/18 05:51:28;;;;;;;13.43;5.63;;;16.90;99.90;;;;;;5035632;28;20037;-68
2022/07/18 05:53:53;;;;;;;9.38;5.07;;;16.90;99.90;;;;;;5035330;28;20021;-68
2022/07/18 05:56:19;;;;;;;20.30;5.82;;;17.10;99.90;;;;;;5035282;28;20033;-68
2022/07/18 05:58:44;;;;;;;15.18;5.15;;;17.10;99.90;;;;;;5035479;28;20025;-68
2022/07/18 06:01:10;;;;;;;13.85;5.07;;;17.20;99.90;;;;;;5035126;28;20026;-68
2022/07/18 06:03:36;;;;;;;9.07;5.05;;;17.30;99.90;;;;;;5035398;28;20026;-68
2022/07/18 06:06:01;;;;;;;11.65;5.75;;;17.20;99.90;;;;;;5035554;28;20030;-68
2022/07/18 06:08:27;;;;;;;11.23;5.10;;;17.30;99.90;;;;;;5035320;28;20103;-68
2022/07/18 06:10:52;;;;;;;9.65;5.00;;;17.20;99.90;;;;;;5034904;28;20033;-68
2022/07/18 06:13:18;;;;;;;12.90;4.47;;;17.20;99.90;;;;;;5034993;28;20096;-69
2022/07/18 06:15:43;;;;;;;12.25;4.82;;;17.20;99.90;;;;;;5017228;28;20385;-69
2022/07/18 06:18:09;;;;;;;15.52;4.68;;;17.10;99.90;;;;;;5034355;28;20036;-69
2022/07/18 06:20:34;;;;;;;12.80;4.50;;;17.20;99.90;;;;;;5034738;28;20030;-69
2022/07/18 06:23:00;;;;;;;18.27;5.22;;;17.10;99.90;;;;;;5034759;28;20026;-69
2022/07/18 06:25:25;;;;;;;11.05;4.78;;;17.20;99.90;;;;;;5035045;28;20158;-69
2022/07/18 06:27:51;;;;;;;11.45;4.60;;;17.30;99.90;;;;;;5035155;28;20075;-69
2022/07/18 06:30:17;;;;;;;13.98;5.95;;;17.40;99.90;;;;;;5034785;28;20017;-68
2022/07/18 06:32:42;;;;;;;11.65;5.55;;;17.50;99.90;;;;;;5034830;28;20021;-68
2022/07/18 06:35:08;;;;;;;13.60;5.05;;;17.50;99.90;;;;;;5034516;28;20079;-68
2022/07/18 06:37:34;;;;;;;12.45;5.68;;;17.50;99.90;;;;;;5027459;28;20030;-69
2022/07/18 06:40:00;;;;;;;11.75;5.15;;;17.60;99.90;;;;;;5029984;28;20389;-69
2022/07/18 06:42:25;;;;;;;11.90;5.90;;;17.60;99.90;;;;;;5014659;28;20041;-69
2022/07/18 06:44:51;;;;;;;17.70;5.40;;;17.70;99.90;;;;;;5014598;28;20125;-69
2022/07/18 06:47:16;;;;;;;14.40;5.53;;;17.80;99.90;;;;;;5014482;28;20481;-69
2022/07/18 06:49:42;;;;;;;11.07;4.70;;;17.90;99.90;;;;;;5014606;28;20018;-70
2022/07/18 06:52:11;;;;;;;17.98;5.20;;;18.00;99.90;;;;;;5016925;28;20041;-69
2022/07/18 06:54:38;;;;;;;10.32;6.18;;;18.10;99.90;;;;;;5014440;28;20497;-69
2022/07/18 06:57:07;;;;;;;9.52;5.18;;;18.20;99.90;;;;;;5014414;28;20029;-69
2022/07/18 06:59:33;;;;;;;13.45;5.50;;;18.30;99.90;;;;;;5014332;28;20025;-69
2022/07/18 07:01:59;;;;;;;8.05;5.18;;;18.30;99.90;;;;;;5014326;28;20022;-69
2022/07/18 07:04:25;;;;;;;11.55;5.25;;;18.50;99.90;;;;;;5014513;28;20022;-69
2022/07/18 07:06:50;;;;;;;16.20;5.82;;;18.40;99.90;;;;;;4996451;28;20022;-69
2022/07/18 07:09:16;;;;;;;9.45;4.93;;;18.60;99.90;;;;;;5054973;23;20133;-70
2022/07/18 07:11:41;;;;;;;13.80;5.25;;;18.60;99.90;;;;;;5034170;28;20041;-71
2022/07/18 07:14:07;;;;;;;12.60;5.85;;;18.80;99.90;;;;;;5034158;28;20104;-71
2022/07/18 07:16:33;;;;;;;16.15;5.60;;;18.70;99.90;;;;;;5034174;28;20041;-71
2022/07/18 07:18:58;;;;;;;11.10;5.53;;;18.70;99.90;;;;;;5034438;28;20437;-71
2022/07/18 07:21:24;;;;;;;14.98;5.68;;;18.80;99.90;;;;;;5034154;28;20473;-72
2022/07/18 07:23:49;;;;;;;16.48;5.45;;;18.80;99.90;;;;;;5034314;28;20029;-72
2022/07/18 07:26:15;;;;;;;13.55;5.00;;;18.80;99.90;;;;;;5034068;28;20029;-72
2022/07/18 07:28:40;;;;;;;9.95;5.20;;;18.90;99.90;;;;;;5034174;28;20029;-72
2022/07/18 07:31:06;;;;;;;9.13;5.28;;;19.00;99.90;;;;;;5033467;28;20075;-70
2022/07/18 07:33:31;;;;;;;14.70;5.05;;;19.20;99.90;;;;;;5034071;28;20136;-70
2022/07/18 07:35:57;;;;;;;10.75;4.15;;;19.20;99.90;;;;;;5034078;28;20017;-71
2022/07/18 07:38:27;;;;;;;10.77;4.90;;;19.20;99.90;;;;;;5016630;28;20108;-70
2022/07/18 07:40:54;;;;;;;12.45;4.80;;;19.30;99.90;;;;;;5034570;28;20026;-71
2022/07/18 07:43:19;;;;;;;10.52;4.97;;;19.40;99.90;;;;;;5034483;28;20091;-71
2022/07/18 07:45:50;;;;;;;12.27;4.30;;;19.40;99.90;;;;;;5033688;28;20025;-71
2022/07/18 07:48:16;;;;;;;11.18;4.05;;;19.60;99.90;;;;;;5033732;28;20029;-71
2022/07/18 07:50:42;;;;;;;6.93;3.85;;;19.80;99.90;;;;;;5033696;28;20029;-71
2022/07/18 07:53:08;;;;;;;7.57;4.50;;;19.80;99.90;;;;;;5033512;28;20029;-71
2022/07/18 07:55:34;;;;;;;11.05;4.43;;;19.90;99.90;;;;;;5033578;28;20022;-71
2022/07/18 07:58:00;;;;;;;10.35;4.60;;;20.10;99.90;;;;;;5033750;28;20033;-71
2022/07/18 08:00:27;;;;;;;9.95;3.55;;;20.30;99.90;;;;;;5033674;28;20028;-71
2022/07/18 08:03:01;;;;;;;10.38;4.15;;;20.70;99.90;;;;;;5034232;28;20049;-71
2022/07/18 08:05:37;;;;;;;7.85;4.07;;;21.10;99.90;;;;;;5033984;28;20067;-71
2022/07/18 08:08:03;;;;;;;10.63;4.10;;;21.40;99.90;;;;;;5034155;28;20026;-71
2022/07/18 08:10:30;;;;;;;9.27;3.85;;;21.50;99.90;;;;;;5033823;28;20493;-71
2022/07/18 08:12:57;;;;;;;10.75;4.82;;;21.40;99.90;;;;;;5033848;28;20036;-71
2022/07/18 08:15:24;;;;;;;12.05;4.20;;;21.50;99.90;;;;;;5033393;28;20048;-71
2022/07/18 08:17:50;;;;;;;19.50;4.85;;;21.80;99.90;;;;;;5033722;28;20088;-71
2022/07/18 08:20:18;;;;;;;7.88;3.60;;;21.80;99.90;;;;;;5033817;28;20022;-71
2022/07/18 08:23:02;;;;;;;7.25;3.63;;;21.70;99.90;;;;;;5033342;28;20030;-70
2022/07/18 08:25:29;;;;;;;7.22;3.83;;;21.80;99.90;;;;;;5033558;28;20033;-71
2022/07/18 08:27:55;;;;;;;7.53;4.10;;;21.60;99.90;;;;;;5033247;28;20047;-70
2022/07/18 08:30:21;;;;;;;13.88;4.72;;;21.70;99.90;;;;;;5015595;28;20470;-70
2022/07/18 08:32:47;;;;;;;11.07;4.28;;;21.80;99.90;;;;;;5033252;28;20105;-70
2022/07/18 08:35:13;;;;;;;9.63;3.83;;;21.80;99.90;;;;;;5033393;28;20054;-71
2022/07/18 08:37:39;;;;;;;10.68;4.13;;;22.00;99.90;;;;;;5033495;28;20052;-70
2022/07/18 08:40:05;;;;;;;8.18;4.13;;;22.20;99.90;;;;;;5033142;28;20036;-71
2022/07/18 08:42:33;;;;;;;9.32;3.97;;;22.20;99.90;;;;;;5036411;28;20363;-71
2022/07/18 08:44:59;;;;;;;7.72;3.90;;;22.30;99.90;;;;;;5036935;28;20045;-70
2022/07/18 08:47:27;;;;;;;14.40;3.90;;;22.30;99.90;;;;;;5036910;28;20496;-70
2022/07/18 08:49:53;;;;;;;11.02;4.75;;;22.20;99.90;;;;;;5036777;28;20269;-70
2022/07/18 08:52:20;;;;;;;9.07;3.70;;;22.30;99.90;;;;;;5036684;28;20065;-70
2022/07/18 08:54:48;;;;;;;9.98;3.47;;;22.10;99.90;;;;;;5037052;28;20483;-70
2022/07/18 08:57:14;;;;;;;7.80;3.63;;;22.10;99.90;;;;;;5036713;28;20021;-70
2022/07/18 08:59:40;;;;;;;5.75;2.85;;;22.00;99.90;;;;;;5036436;28;20067;-70
2022/07/18 09:02:07;;;;;;;9.52;3.03;;;21.90;99.90;;;;;;5036609;28;20537;-70
2022/07/18 09:04:40;;;;;;;10.00;3.92;;;21.90;99.90;;;;;;5036848;28;20035;-70
2022/07/18 09:07:11;;;;;;;8.07;3.78;;;22.00;99.90;;;;;;5036531;28;20516;-69
2022/07/18 09:09:37;;;;;;;7.00;3.83;;;22.00;99.90;;;;;;5036345;28;20029;-69
2022/07/18 09:12:09;;;;;;;13.23;3.72;;;21.90;99.90;;;;;;5036406;28;20018;-70
2022/07/18 09:14:41;;;;;;;11.85;3.55;;;21.90;99.90;;;;;;5036417;28;20075;-70
2022/07/18 09:17:15;;;;;;;7.63;2.88;;;22.00;99.90;;;;;;5036531;28;20374;-70
2022/07/18 09:20:07;;;;;;;10.68;3.40;;;22.10;99.90;;;;;;5036470;28;20021;-70
2022/07/18 09:22:34;;;;;;;5.35;2.70;;;22.40;99.90;;;;;;5028217;28;20038;-70
2022/07/18 09:25:05;;;;;;;9.02;3.63;;;22.50;99.90;;;;;;5036201;28;20053;-71
2022/07/18 09:27:39;;;;;;;9.48;3.53;;;22.60;99.90;;;;;;5018562;28;20071;-70
2022/07/18 09:30:16;;;;;;;8.23;2.95;;;22.40;99.90;;;;;;5036346;28;20021;-70
2022/07/18 09:32:45;;;;;;;9.18;3.17;;;22.40;99.90;;;;;;5036029;28;20489;-70
2022/07/18 09:35:13;;;;;;;6.43;2.90;;;22.40;99.90;;;;;;5036336;28;20026;-70
2022/07/18 09:37:40;;;;;;;8.70;3.67;;;22.30;99.90;;;;;;5036035;28;20025;-70
2022/07/18 09:40:24;;;;;;;5.75;3.00;;;22.50;99.90;;;;;;5035892;28;20044;-71
2022/07/18 09:42:55;;;;;;;9.30;2.55;;;22.70;99.90;;;;;;5035985;28;20025;-70
2022/07/18 09:45:25;;;;;;;9.30;3.25;;;23.10;99.90;;;;;;5035783;28;20404;-70
2022/07/18 09:47:57;;;;;;;9.60;3.33;;;23.10;99.90;;;;;;5035663;28;20029;-70
2022/07/18 09:50:48;;;;;;;7.70;3.10;;;23.20;99.90;;;;;;5035965;28;20017;-70
2022/07/18 09:53:29;;;;;;;8.82;2.50;;;23.20;99.90;;;;;;5035079;28;20104;-70
2022/07/18 09:55:57;;;;;;;15.00;3.63;;;23.20;99.90;;;;;;5035847;28;20025;-70
2022/07/18 09:58:26;;;;;;;5.90;3.22;;;23.50;99.90;;;;;;5035689;28;20021;-70
2022/07/18 10:00:53;;;;;;;5.95;2.85;;;23.80;99.90;;;;;;5035621;28;20025;-70
2022/07/18 10:03:19;;;;;;;4.85;2.60;;;24.20;99.90;;;;;;5036253;28;20092;-70
2022/07/18 10:05:47;;;;;;;12.82;3.72;;;24.20;99.90;;;;;;5035956;28;20021;-71
2022/07/18 10:08:15;;;;;;;11.55;3.28;;;24.20;99.90;;;;;;5035499;28;20096;-71
2022/07/18 10:10:43;;;;;;;10.75;3.63;;;24.10;99.90;;;;;;5035273;28;20129;-71
2022/07/18 10:13:09;;;;;;;11.10;3.13;;;24.20;99.90;;;;;;5035466;28;20033;-71
2022/07/18 10:15:37;;;;;;;6.55;2.97;;;24.40;99.90;;;;;;5035275;28;20026;-71
2022/07/18 10:18:06;;;;;;;9.98;2.85;;;24.80;99.90;;;;;;5035917;28;20022;-70
2022/07/18 10:20:35;;;;;;;8.95;3.08;;;25.10;99.90;;;;;;5035142;28;20032;-70
2022/07/18 10:23:22;;;;;;;13.30;4.45;;;25.40;99.90;;;;;;5035128;28;20492;-70
2022/07/18 10:26:17;;;;;;;8.02;3.22;;;25.00;99.90;;;;;;5035122;28;20061;-71
2022/07/18 10:28:54;;;;;;;9.55;2.85;;;24.80;99.90;;;;;;5015357;28;20088;-70
2022/07/18 10:31:28;;;;;;;8.57;3.60;;;24.70;99.90;;;;;;5014909;28;20065;-70
2022/07/18 10:34:09;;;;;;;18.17;3.00;;;24.70;99.90;;;;;;5015226;28;20068;-71
2022/07/18 10:36:51;;;;;;;3.20;2.28;;;24.80;99.90;;;;;;5015085;28;20493;-71
2022/07/18 10:39:23;;;;;;;9.13;3.08;;;24.50;99.90;;;;;;5029309;28;20017;-70
2022/07/18 10:41:52;;;;;;;6.88;2.70;;;24.20;99.90;;;;;;5035245;28;20029;-70
2022/07/18 10:44:27;;;;;;;10.70;2.47;;;24.00;99.90;;;;;;5034858;28;20022;-70
2022/07/18 10:47:09;;;;;;;6.10;2.65;;;23.80;99.90;;;;;;5034552;28;20029;-70
2022/07/18 10:49:49;;;;;;;23.00;3.10;;;23.70;99.90;;;;;;5034634;28;20028;-70
2022/07/18 10:52:26;;;;;;;6.18;2.90;;;23.60;99.90;;;;;;5034580;28;20060;-71
2022/07/18 10:55:04;;;;;;;14.60;3.83;;;23.40;99.90;;;;;;5034539;28;20477;-71
2022/07/18 10:57:37;;;;;;;8.07;3.97;;;23.20;99.90;;;;;;5034814;28;20025;-71
2022/07/18 11:00:13;;;;;;;6.88;3.25;;;23.10;99.90;;;;;;5034418;28;20507;-72
2022/07/18 11:02:43;;;;;;;8.50;2.92;;;23.20;99.90;;;;;;5034464;28;20034;-71
2022/07/18 11:05:26;;;;;;;7.35;3.40;;;23.10;99.90;;;;;;5034445;28;20485;-71
2022/07/18 11:07:58;;;;;;;9.60;2.92;;;23.10;99.90;;;;;;5034549;28;20441;-71
2022/07/18 11:10:43;;;;;;;9.70;2.90;;;23.10;99.90;;;;;;5034245;28;20065;-71
2022/07/18 11:13:28;;;;;;;9.63;3.03;;;23.20;99.90;;;;;;5034317;28;20489;-71
2022/07/18 11:16:07;;;;;;;8.82;3.25;;;23.30;99.90;;;;;;5034200;28;20033;-71
2022/07/18 11:18:39;;;;;;;6.80;2.85;;;23.50;99.90;;;;;;5034782;28;20172;-71
2022/07/18 11:21:16;;;;;;;8.63;2.72;;;23.50;99.90;;;;;;5034078;28;20071;-71
2022/07/18 11:23:43;;;;;;;9.68;3.30;;;23.40;99.90;;;;;;5034112;28;20021;-71
2022/07/18 11:26:15;;;;;;;7.32;2.65;;;23.30;99.90;;;;;;5033972;28;20025;-71
2022/07/18 11:28:41;;;;;;;11.82;2.75;;;23.20;99.90;;;;;;5034403;28;20378;-71
2022/07/18 11:31:09;;;;;;;6.10;2.28;;;23.20;99.90;;;;;;5034026;28;20092;-71
2022/07/18 11:33:38;;;;;;;7.57;2.20;;;23.30;99.90;;;;;;5034043;28;20118;-72
2022/07/18 11:36:09;;;;;;;8.25;2.55;;;23.20;99.90;;;;;;5034157;28;20025;-71
2022/07/18 11:38:37;;;;;;;6.40;2.13;;;23.20;99.90;;;;;;5034380;28;20018;-71
2022/07/18 11:41:03;;;;;;;5.63;2.78;;;23.40;99.90;;;;;;5033872;28;20021;-71
2022/07/18 11:43:29;;;;;;;4.90;2.05;;;23.60;99.90;;;;;;5033925;28;20029;-71
2022/07/18 11:46:06;;;;;;;7.40;2.53;;;23.90;99.90;;;;;;5033887;28;20028;-71
2022/07/18 11:48:33;;;;;;;9.05;2.13;;;24.00;99.90;;;;;;5033960;28;20021;-71
2022/07/18 11:50:59;;;;;;;4.63;1.83;;;24.20;99.90;;;;;;5033723;28;20025;-71
2022/07/18 11:53:25;;;;;;;6.72;2.08;;;24.30;99.90;;;;;;5033762;28;20125;-71
2022/07/18 11:55:53;;;;;;;12.25;2.10;;;24.30;99.90;;;;;;5034059;28;20025;-71
2022/07/18 11:58:19;;;;;;;5.97;2.20;;;24.30;99.90;;;;;;5033778;28;20029;-71
2022/07/18 12:00:46;;;;;;;5.72;1.60;;;24.40;99.90;;;;;;5033584;28;20056;-71
2022/07/18 12:03:13;;;;;;;4.38;1.60;;;24.70;99.90;;;;;;5033813;28;20040;-72
2022/07/18 12:05:42;;;;;;;9.30;1.75;;;24.80;99.90;;;;;;5033700;28;20021;-71
2022/07/18 12:08:27;;;;;;;8.60;1.65;;;24.90;99.90;;;;;;5033575;28;20025;-71
2022/07/18 12:11:08;;;;;;;4.10;1.65;;;24.80;99.90;;;;;;5033513;28;20099;-71
2022/07/18 12:14:01;;;;;;;5.18;1.65;;;24.60;99.90;;;;;;5033427;28;20552;-71
2022/07/18 12:16:45;;;;;;;5.25;2.00;;;24.40;99.90;;;;;;5024501;28;20040;-71
2022/07/18 12:19:13;;;;;;;4.50;1.40;;;24.10;99.90;;;;;;5037853;28;20021;-71
2022/07/18 12:21:43;;;;;;;13.13;2.20;;;23.90;99.90;;;;;;5037508;28;20025;-71
2022/07/18 12:24:42;;;;;;;5.22;1.98;;;23.80;99.90;;;;;;5038198;28;20021;-71
2022/07/18 12:27:13;;;;;;;5.57;2.10;;;23.90;99.90;;;;;;5038019;28;20053;-71
2022/07/18 12:30:08;;;;;;;9.77;2.35;;;24.00;99.90;;;;;;5037290;28;20092;-71
2022/07/18 12:32:44;;;;;;;3.35;2.08;;;24.10;99.90;;;;;;5037289;28;20029;-71
2022/07/18 12:35:16;;;;;;;4.50;1.90;;;24.50;99.90;;;;;;5037520;28;20025;-71
2022/07/18 12:38:01;;;;;;;3.33;1.90;;;24.80;99.90;;;;;;5037415;28;20040;-71
2022/07/18 12:40:47;;;;;;;4.60;2.20;;;24.90;99.90;;;;;;5037122;28;20370;-71
2022/07/18 12:43:15;;;;;;;3.75;1.70;;;24.90;99.90;;;;;;5037379;28;20021;-71
2022/07/18 12:45:42;;;;;;;4.10;1.98;;;24.80;99.90;;;;;;5037419;28;20038;-71